sensor_id;sensor_type;location;lat;lon;timestamp;P1;durP1;ratioP1;P2;durP2;ratioP2
33690;SDS011;20026;50.058;18.428;2024-01-07T00:01:23;50.42;;;25.17;;
33690;SDS011;20026;50.058;18.428;2024-01-07T00:03:51;51.20;;;25.42;;
33690;SDS011;20026;50.058;18.428;2024-01-07T00:06:17;47.55;;;25.85;;
33690;SDS011;20026;50.058;18.428;2024-01-07T00:08:43;40.33;;;23.00;;
33690;SDS011;20026;50.058;18.428;2024-01-07T00:11:09;47.13;;;24.58;;
33690;SDS011;20026;50.058;18.428;2024-01-07T00:13:35;41.92;;;23.05;;
33690;SDS011;20026;50.058;18.428;2024-01-07T00:16:01;43.40;;;23.17;;
33690;SDS011;20026;50.058;18.428;2024-01-07T00:18:27;42.22;;;22.65;;
33690;SDS011;20026;50.058;18.428;2024-01-07T00:20:53;42.33;;;22.63;;
33690;SDS011;20026;50.058;18.428;2024-01-07T00:23:19;46.70;;;24.60;;
33690;SDS011;20026;50.058;18.428;2024-01-07T00:25:48;44.42;;;23.98;;
33690;SDS011;20026;50.058;18.428;2024-01-07T00:28:14;43.70;;;24.48;;
33690;SDS011;20026;50.058;18.428;2024-01-07T00:30:40;45.25;;;23.92;;
33690;SDS011;20026;50.058;18.428;2024-01-07T00:33:06;42.72;;;23.02;;
33690;SDS011;20026;50.058;18.428;2024-01-07T00:35:32;40.85;;;22.15;;
33690;SDS011;20026;50.058;18.428;2024-01-07T00:37:58;38.42;;;22.48;;
33690;SDS011;20026;50.058;18.428;2024-01-07T00:40:24;38.60;;;22.20;;
33690;SDS011;20026;50.058;18.428;2024-01-07T00:42:51;40.35;;;21.80;;
33690;SDS011;20026;50.058;18.428;2024-01-07T00:45:17;38.95;;;22.05;;
33690;SDS011;20026;50.058;18.428;2024-01-07T00:47:43;44.72;;;24.30;;
33690;SDS011;20026;50.058;18.428;2024-01-07T00:50:09;42.28;;;23.83;;
33690;SDS011;20026;50.058;18.428;2024-01-07T00:52:35;40.50;;;22.13;;
33690;SDS011;20026;50.058;18.428;2024-01-07T00:55:04;37.30;;;21.73;;
33690;SDS011;20026;50.058;18.428;2024-01-07T00:57:31;37.30;;;19.23;;
33690;SDS011;20026;50.058;18.428;2024-01-07T00:59:57;33.05;;;18.83;;
33690;SDS011;20026;50.058;18.428;2024-01-07T01:02:23;32.30;;;18.30;;
33690;SDS011;20026;50.058;18.428;2024-01-07T01:04:49;33.30;;;18.55;;
33690;SDS011;20026;50.058;18.428;2024-01-07T01:07:15;31.67;;;17.83;;
33690;SDS011;20026;50.058;18.428;2024-01-07T01:09:41;30.80;;;17.42;;
33690;SDS011;20026;50.058;18.428;2024-01-07T01:12:07;31.48;;;17.80;;
33690;SDS011;20026;50.058;18.428;2024-01-07T01:14:33;36.33;;;19.95;;
33690;SDS011;20026;50.058;18.428;2024-01-07T01:16:59;32.30;;;18.58;;
33690;SDS011;20026;50.058;18.428;2024-01-07T01:19:25;34.90;;;18.02;;
33690;SDS011;20026;50.058;18.428;2024-01-07T01:21:51;29.10;;;17.08;;
33690;SDS011;20026;50.058;18.428;2024-01-07T01:24:17;36.08;;;18.88;;
33690;SDS011;20026;50.058;18.428;2024-01-07T01:26:43;34.15;;;19.10;;
33690;SDS011;20026;50.058;18.428;2024-01-07T01:29:09;29.40;;;18.25;;
33690;SDS011;20026;50.058;18.428;2024-01-07T01:31:35;33.25;;;18.25;;
33690;SDS011;20026;50.058;18.428;2024-01-07T01:34:01;33.20;;;18.60;;
33690;SDS011;20026;50.058;18.428;2024-01-07T01:36:27;32.15;;;20.10;;
33690;SDS011;20026;50.058;18.428;2024-01-07T01:38:53;32.63;;;19.42;;
33690;SDS011;20026;50.058;18.428;2024-01-07T01:41:19;30.75;;;17.58;;
33690;SDS011;20026;50.058;18.428;2024-01-07T01:43:45;33.83;;;17.45;;
33690;SDS011;20026;50.058;18.428;2024-01-07T01:46:12;30.23;;;16.60;;
33690;SDS011;20026;50.058;18.428;2024-01-07T01:48:39;29.77;;;15.43;;
33690;SDS011;20026;50.058;18.428;2024-01-07T01:51:05;27.67;;;16.88;;
33690;SDS011;20026;50.058;18.428;2024-01-07T01:53:32;28.13;;;15.85;;
33690;SDS011;20026;50.058;18.428;2024-01-07T01:55:58;30.23;;;17.02;;
33690;SDS011;20026;50.058;18.428;2024-01-07T01:58:25;32.75;;;18.92;;
33690;SDS011;20026;50.058;18.428;2024-01-07T02:00:52;31.23;;;17.25;;
33690;SDS011;20026;50.058;18.428;2024-01-07T02:03:18;32.17;;;18.23;;
33690;SDS011;20026;50.058;18.428;2024-01-07T02:05:44;28.25;;;16.55;;
33690;SDS011;20026;50.058;18.428;2024-01-07T02:08:10;34.03;;;17.73;;
33690;SDS011;20026;50.058;18.428;2024-01-07T02:10:37;31.92;;;19.23;;
33690;SDS011;20026;50.058;18.428;2024-01-07T02:13:03;29.02;;;16.30;;
33690;SDS011;20026;50.058;18.428;2024-01-07T02:15:29;26.38;;;15.68;;
33690;SDS011;20026;50.058;18.428;2024-01-07T02:17:55;26.02;;;15.32;;
33690;SDS011;20026;50.058;18.428;2024-01-07T02:20:22;28.95;;;17.02;;
33690;SDS011;20026;50.058;18.428;2024-01-07T02:22:48;32.35;;;16.60;;
33690;SDS011;20026;50.058;18.428;2024-01-07T02:25:14;29.30;;;17.13;;
33690;SDS011;20026;50.058;18.428;2024-01-07T02:27:40;31.40;;;17.65;;
33690;SDS011;20026;50.058;18.428;2024-01-07T02:30:06;33.38;;;18.65;;
33690;SDS011;20026;50.058;18.428;2024-01-07T02:32:32;32.88;;;18.95;;
33690;SDS011;20026;50.058;18.428;2024-01-07T02:35:00;32.05;;;16.10;;
33690;SDS011;20026;50.058;18.428;2024-01-07T02:37:26;30.92;;;15.40;;
33690;SDS011;20026;50.058;18.428;2024-01-07T02:39:52;26.38;;;15.68;;
33690;SDS011;20026;50.058;18.428;2024-01-07T02:42:18;26.95;;;14.10;;
33690;SDS011;20026;50.058;18.428;2024-01-07T02:44:44;28.67;;;15.38;;
33690;SDS011;20026;50.058;18.428;2024-01-07T02:47:10;30.52;;;16.33;;
33690;SDS011;20026;50.058;18.428;2024-01-07T02:49:36;34.55;;;17.73;;
33690;SDS011;20026;50.058;18.428;2024-01-07T02:52:02;25.02;;;15.40;;
33690;SDS011;20026;50.058;18.428;2024-01-07T02:54:28;28.65;;;15.63;;
33690;SDS011;20026;50.058;18.428;2024-01-07T02:56:54;25.40;;;13.45;;
33690;SDS011;20026;50.058;18.428;2024-01-07T02:59:20;24.10;;;14.65;;
33690;SDS011;20026;50.058;18.428;2024-01-07T03:01:46;22.52;;;11.93;;
33690;SDS011;20026;50.058;18.428;2024-01-07T03:04:13;25.48;;;13.60;;
33690;SDS011;20026;50.058;18.428;2024-01-07T03:06:39;21.80;;;13.45;;
33690;SDS011;20026;50.058;18.428;2024-01-07T03:09:05;22.85;;;13.85;;
33690;SDS011;20026;50.058;18.428;2024-01-07T03:11:32;23.50;;;14.70;;
33690;SDS011;20026;50.058;18.428;2024-01-07T03:13:58;26.73;;;15.98;;
33690;SDS011;20026;50.058;18.428;2024-01-07T03:16:25;28.55;;;18.10;;
33690;SDS011;20026;50.058;18.428;2024-01-07T03:18:51;23.67;;;14.57;;
33690;SDS011;20026;50.058;18.428;2024-01-07T03:21:18;32.22;;;18.38;;
33690;SDS011;20026;50.058;18.428;2024-01-07T03:23:44;26.67;;;15.20;;
33690;SDS011;20026;50.058;18.428;2024-01-07T03:26:10;23.88;;;13.73;;
33690;SDS011;20026;50.058;18.428;2024-01-07T03:28:36;20.58;;;10.48;;
33690;SDS011;20026;50.058;18.428;2024-01-07T03:31:09;15.20;;;9.48;;
33690;SDS011;20026;50.058;18.428;2024-01-07T03:33:39;19.55;;;9.77;;
33690;SDS011;20026;50.058;18.428;2024-01-07T03:36:09;16.23;;;10.27;;
33690;SDS011;20026;50.058;18.428;2024-01-07T03:41:00;21.02;;;9.32;;
33690;SDS011;20026;50.058;18.428;2024-01-07T03:43:26;17.20;;;9.50;;
33690;SDS011;20026;50.058;18.428;2024-01-07T03:45:53;18.05;;;10.00;;
33690;SDS011;20026;50.058;18.428;2024-01-07T03:48:19;20.35;;;9.55;;
33690;SDS011;20026;50.058;18.428;2024-01-07T03:50:45;17.60;;;10.13;;
33690;SDS011;20026;50.058;18.428;2024-01-07T03:53:11;18.98;;;10.45;;
33690;SDS011;20026;50.058;18.428;2024-01-07T03:55:37;17.77;;;10.13;;
33690;SDS011;20026;50.058;18.428;2024-01-07T03:58:04;17.25;;;9.77;;
33690;SDS011;20026;50.058;18.428;2024-01-07T04:00:30;16.60;;;9.30;;
33690;SDS011;20026;50.058;18.428;2024-01-07T04:02:56;15.88;;;9.68;;
33690;SDS011;20026;50.058;18.428;2024-01-07T04:05:22;14.43;;;8.77;;
33690;SDS011;20026;50.058;18.428;2024-01-07T04:07:48;18.95;;;8.95;;
33690;SDS011;20026;50.058;18.428;2024-01-07T04:10:16;15.60;;;8.43;;
33690;SDS011;20026;50.058;18.428;2024-01-07T04:12:42;14.00;;;7.63;;
33690;SDS011;20026;50.058;18.428;2024-01-07T04:15:08;15.07;;;8.18;;
33690;SDS011;20026;50.058;18.428;2024-01-07T04:17:34;14.88;;;7.97;;
33690;SDS011;20026;50.058;18.428;2024-01-07T04:20:00;13.07;;;7.80;;
33690;SDS011;20026;50.058;18.428;2024-01-07T04:22:26;15.07;;;8.18;;
33690;SDS011;20026;50.058;18.428;2024-01-07T04:24:52;15.43;;;7.90;;
33690;SDS011;20026;50.058;18.428;2024-01-07T04:27:18;14.88;;;8.35;;
33690;SDS011;20026;50.058;18.428;2024-01-07T04:29:44;19.52;;;8.55;;
33690;SDS011;20026;50.058;18.428;2024-01-07T04:32:10;18.98;;;8.90;;
33690;SDS011;20026;50.058;18.428;2024-01-07T04:34:36;17.05;;;8.48;;
33690;SDS011;20026;50.058;18.428;2024-01-07T04:37:02;18.50;;;8.10;;
33690;SDS011;20026;50.058;18.428;2024-01-07T04:39:28;17.98;;;8.18;;
33690;SDS011;20026;50.058;18.428;2024-01-07T04:41:54;39.38;;;14.38;;
33690;SDS011;20026;50.058;18.428;2024-01-07T04:44:20;39.78;;;15.68;;
33690;SDS011;20026;50.058;18.428;2024-01-07T04:46:47;29.77;;;11.60;;
33690;SDS011;20026;50.058;18.428;2024-01-07T04:49:14;26.85;;;11.23;;
33690;SDS011;20026;50.058;18.428;2024-01-07T04:51:40;27.40;;;11.50;;
33690;SDS011;20026;50.058;18.428;2024-01-07T04:54:06;26.58;;;10.75;;
33690;SDS011;20026;50.058;18.428;2024-01-07T04:56:32;21.23;;;9.40;;
33690;SDS011;20026;50.058;18.428;2024-01-07T04:58:58;20.85;;;8.60;;
33690;SDS011;20026;50.058;18.428;2024-01-07T05:01:25;15.50;;;8.20;;
33690;SDS011;20026;50.058;18.428;2024-01-07T05:03:51;22.98;;;10.55;;
33690;SDS011;20026;50.058;18.428;2024-01-07T05:06:17;17.85;;;8.90;;
33690;SDS011;20026;50.058;18.428;2024-01-07T05:08:43;18.85;;;8.95;;
33690;SDS011;20026;50.058;18.428;2024-01-07T05:11:09;17.42;;;8.57;;
33690;SDS011;20026;50.058;18.428;2024-01-07T05:13:36;13.85;;;8.07;;
33690;SDS011;20026;50.058;18.428;2024-01-07T05:16:02;18.65;;;8.18;;
33690;SDS011;20026;50.058;18.428;2024-01-07T05:18:28;17.60;;;8.50;;
33690;SDS011;20026;50.058;18.428;2024-01-07T05:20:54;17.25;;;7.68;;
33690;SDS011;20026;50.058;18.428;2024-01-07T05:23:20;13.90;;;7.32;;
33690;SDS011;20026;50.058;18.428;2024-01-07T05:25:46;19.90;;;8.63;;
33690;SDS011;20026;50.058;18.428;2024-01-07T05:28:12;23.20;;;9.32;;
33690;SDS011;20026;50.058;18.428;2024-01-07T05:30:39;22.60;;;10.13;;
33690;SDS011;20026;50.058;18.428;2024-01-07T05:33:05;20.73;;;8.40;;
33690;SDS011;20026;50.058;18.428;2024-01-07T05:35:31;21.10;;;9.25;;
33690;SDS011;20026;50.058;18.428;2024-01-07T05:37:57;17.38;;;8.35;;
33690;SDS011;20026;50.058;18.428;2024-01-07T05:40:23;16.52;;;8.07;;
33690;SDS011;20026;50.058;18.428;2024-01-07T05:42:49;17.25;;;7.97;;
33690;SDS011;20026;50.058;18.428;2024-01-07T05:45:15;19.40;;;8.35;;
33690;SDS011;20026;50.058;18.428;2024-01-07T05:47:41;19.15;;;8.27;;
33690;SDS011;20026;50.058;18.428;2024-01-07T05:50:08;14.57;;;7.60;;
33690;SDS011;20026;50.058;18.428;2024-01-07T05:52:34;16.48;;;7.07;;
33690;SDS011;20026;50.058;18.428;2024-01-07T05:55:00;15.10;;;6.93;;
33690;SDS011;20026;50.058;18.428;2024-01-07T05:57:26;16.38;;;7.50;;
33690;SDS011;20026;50.058;18.428;2024-01-07T05:59:52;14.00;;;6.50;;
33690;SDS011;20026;50.058;18.428;2024-01-07T06:02:18;13.52;;;7.25;;
33690;SDS011;20026;50.058;18.428;2024-01-07T06:04:44;12.88;;;7.22;;
33690;SDS011;20026;50.058;18.428;2024-01-07T06:07:10;14.15;;;6.90;;
33690;SDS011;20026;50.058;18.428;2024-01-07T06:09:36;14.80;;;7.22;;
33690;SDS011;20026;50.058;18.428;2024-01-07T06:12:02;14.38;;;7.75;;
33690;SDS011;20026;50.058;18.428;2024-01-07T06:14:29;13.77;;;7.43;;
33690;SDS011;20026;50.058;18.428;2024-01-07T06:16:55;15.95;;;7.00;;
33690;SDS011;20026;50.058;18.428;2024-01-07T06:19:21;13.25;;;7.00;;
33690;SDS011;20026;50.058;18.428;2024-01-07T06:21:47;14.13;;;6.90;;
33690;SDS011;20026;50.058;18.428;2024-01-07T06:24:13;12.80;;;7.25;;
33690;SDS011;20026;50.058;18.428;2024-01-07T06:26:40;11.80;;;7.07;;
33690;SDS011;20026;50.058;18.428;2024-01-07T06:29:06;12.82;;;6.63;;
33690;SDS011;20026;50.058;18.428;2024-01-07T06:31:32;12.68;;;7.28;;
33690;SDS011;20026;50.058;18.428;2024-01-07T06:33:58;13.88;;;7.07;;
33690;SDS011;20026;50.058;18.428;2024-01-07T06:36:25;13.93;;;6.53;;
33690;SDS011;20026;50.058;18.428;2024-01-07T06:38:51;13.35;;;6.63;;
33690;SDS011;20026;50.058;18.428;2024-01-07T06:41:18;15.30;;;7.95;;
33690;SDS011;20026;50.058;18.428;2024-01-07T06:43:44;14.80;;;7.10;;
33690;SDS011;20026;50.058;18.428;2024-01-07T06:46:10;13.35;;;6.63;;
33690;SDS011;20026;50.058;18.428;2024-01-07T06:48:35;15.32;;;6.30;;
33690;SDS011;20026;50.058;18.428;2024-01-07T06:51:01;16.52;;;6.82;;
33690;SDS011;20026;50.058;18.428;2024-01-07T06:53:28;18.70;;;8.18;;
33690;SDS011;20026;50.058;18.428;2024-01-07T06:55:54;15.65;;;7.78;;
33690;SDS011;20026;50.058;18.428;2024-01-07T06:58:20;14.70;;;8.43;;
33690;SDS011;20026;50.058;18.428;2024-01-07T07:00:46;17.83;;;8.70;;
33690;SDS011;20026;50.058;18.428;2024-01-07T07:03:12;20.83;;;10.80;;
33690;SDS011;20026;50.058;18.428;2024-01-07T07:05:38;20.52;;;11.90;;
33690;SDS011;20026;50.058;18.428;2024-01-07T07:08:04;24.70;;;12.50;;
33690;SDS011;20026;50.058;18.428;2024-01-07T07:10:30;24.52;;;12.18;;
33690;SDS011;20026;50.058;18.428;2024-01-07T07:12:56;24.70;;;11.90;;
33690;SDS011;20026;50.058;18.428;2024-01-07T07:15:23;38.50;;;18.42;;
33690;SDS011;20026;50.058;18.428;2024-01-07T07:17:51;25.08;;;11.27;;
33690;SDS011;20026;50.058;18.428;2024-01-07T07:20:17;24.63;;;10.30;;
33690;SDS011;20026;50.058;18.428;2024-01-07T07:22:44;21.58;;;9.90;;
33690;SDS011;20026;50.058;18.428;2024-01-07T07:25:10;19.48;;;9.15;;
33690;SDS011;20026;50.058;18.428;2024-01-07T07:27:36;14.68;;;8.32;;
33690;SDS011;20026;50.058;18.428;2024-01-07T07:30:03;18.70;;;8.88;;
33690;SDS011;20026;50.058;18.428;2024-01-07T07:32:29;22.42;;;9.95;;
33690;SDS011;20026;50.058;18.428;2024-01-07T07:34:55;29.02;;;11.73;;
33690;SDS011;20026;50.058;18.428;2024-01-07T07:37:21;20.52;;;11.02;;
33690;SDS011;20026;50.058;18.428;2024-01-07T07:39:48;27.30;;;11.43;;
33690;SDS011;20026;50.058;18.428;2024-01-07T07:42:14;21.60;;;10.35;;
33690;SDS011;20026;50.058;18.428;2024-01-07T07:44:41;21.10;;;10.30;;
33690;SDS011;20026;50.058;18.428;2024-01-07T07:47:07;16.60;;;9.65;;
33690;SDS011;20026;50.058;18.428;2024-01-07T07:49:33;24.00;;;12.30;;
33690;SDS011;20026;50.058;18.428;2024-01-07T07:52:00;28.38;;;13.35;;
33690;SDS011;20026;50.058;18.428;2024-01-07T07:54:26;17.23;;;10.20;;
33690;SDS011;20026;50.058;18.428;2024-01-07T07:56:52;19.33;;;10.55;;
33690;SDS011;20026;50.058;18.428;2024-01-07T07:59:18;21.95;;;10.65;;
33690;SDS011;20026;50.058;18.428;2024-01-07T08:01:45;20.58;;;10.88;;
33690;SDS011;20026;50.058;18.428;2024-01-07T08:04:11;25.40;;;11.85;;
33690;SDS011;20026;50.058;18.428;2024-01-07T08:06:37;22.88;;;11.25;;
33690;SDS011;20026;50.058;18.428;2024-01-07T08:09:03;19.42;;;9.68;;
33690;SDS011;20026;50.058;18.428;2024-01-07T08:11:29;20.95;;;10.35;;
33690;SDS011;20026;50.058;18.428;2024-01-07T08:13:55;22.45;;;10.55;;
33690;SDS011;20026;50.058;18.428;2024-01-07T08:16:22;23.52;;;10.95;;
33690;SDS011;20026;50.058;18.428;2024-01-07T08:18:48;31.52;;;13.82;;
33690;SDS011;20026;50.058;18.428;2024-01-07T08:21:14;27.50;;;13.35;;
33690;SDS011;20026;50.058;18.428;2024-01-07T08:23:40;21.77;;;10.43;;
33690;SDS011;20026;50.058;18.428;2024-01-07T08:26:07;20.48;;;10.07;;
33690;SDS011;20026;50.058;18.428;2024-01-07T08:28:33;20.77;;;10.25;;
33690;SDS011;20026;50.058;18.428;2024-01-07T08:30:59;19.77;;;10.32;;
33690;SDS011;20026;50.058;18.428;2024-01-07T08:33:25;22.48;;;12.68;;
33690;SDS011;20026;50.058;18.428;2024-01-07T08:35:51;27.00;;;13.82;;
33690;SDS011;20026;50.058;18.428;2024-01-07T08:38:17;23.38;;;10.90;;
33690;SDS011;20026;50.058;18.428;2024-01-07T08:40:43;38.25;;;14.73;;
33690;SDS011;20026;50.058;18.428;2024-01-07T08:43:09;25.83;;;11.80;;
33690;SDS011;20026;50.058;18.428;2024-01-07T08:45:35;28.55;;;13.63;;
33690;SDS011;20026;50.058;18.428;2024-01-07T08:48:01;22.15;;;10.68;;
33690;SDS011;20026;50.058;18.428;2024-01-07T08:50:27;20.70;;;10.10;;
33690;SDS011;20026;50.058;18.428;2024-01-07T08:52:55;20.60;;;9.63;;
33690;SDS011;20026;50.058;18.428;2024-01-07T08:55:21;34.65;;;14.68;;
33690;SDS011;20026;50.058;18.428;2024-01-07T08:57:47;20.05;;;10.60;;
33690;SDS011;20026;50.058;18.428;2024-01-07T09:00:14;37.42;;;16.67;;
33690;SDS011;20026;50.058;18.428;2024-01-07T09:02:40;19.70;;;9.75;;
33690;SDS011;20026;50.058;18.428;2024-01-07T09:05:06;21.63;;;10.77;;
33690;SDS011;20026;50.058;18.428;2024-01-07T09:07:32;16.83;;;9.35;;
33690;SDS011;20026;50.058;18.428;2024-01-07T09:09:58;23.48;;;10.48;;
33690;SDS011;20026;50.058;18.428;2024-01-07T09:12:26;19.58;;;9.98;;
33690;SDS011;20026;50.058;18.428;2024-01-07T09:14:52;21.38;;;9.38;;
33690;SDS011;20026;50.058;18.428;2024-01-07T09:17:18;30.38;;;13.77;;
33690;SDS011;20026;50.058;18.428;2024-01-07T09:19:44;33.22;;;13.73;;
33690;SDS011;20026;50.058;18.428;2024-01-07T09:22:10;41.60;;;17.23;;
33690;SDS011;20026;50.058;18.428;2024-01-07T09:24:37;43.67;;;18.08;;
33690;SDS011;20026;50.058;18.428;2024-01-07T09:27:03;30.92;;;13.82;;
33690;SDS011;20026;50.058;18.428;2024-01-07T09:29:29;28.38;;;13.15;;
33690;SDS011;20026;50.058;18.428;2024-01-07T09:31:55;26.88;;;12.75;;
33690;SDS011;20026;50.058;18.428;2024-01-07T09:34:21;30.88;;;12.85;;
33690;SDS011;20026;50.058;18.428;2024-01-07T09:36:47;30.90;;;12.40;;
33690;SDS011;20026;50.058;18.428;2024-01-07T09:39:13;24.58;;;11.45;;
33690;SDS011;20026;50.058;18.428;2024-01-07T09:41:39;24.00;;;12.00;;
33690;SDS011;20026;50.058;18.428;2024-01-07T09:44:05;20.55;;;10.90;;
33690;SDS011;20026;50.058;18.428;2024-01-07T09:46:32;23.42;;;9.82;;
33690;SDS011;20026;50.058;18.428;2024-01-07T09:49:00;18.90;;;8.95;;
33690;SDS011;20026;50.058;18.428;2024-01-07T09:51:26;19.92;;;9.48;;
33690;SDS011;20026;50.058;18.428;2024-01-07T09:53:55;17.60;;;9.27;;
33690;SDS011;20026;50.058;18.428;2024-01-07T09:56:24;27.15;;;11.70;;
33690;SDS011;20026;50.058;18.428;2024-01-07T09:58:50;44.67;;;18.13;;
33690;SDS011;20026;50.058;18.428;2024-01-07T10:01:19;36.90;;;14.93;;
33690;SDS011;20026;50.058;18.428;2024-01-07T10:03:45;19.00;;;11.75;;
33690;SDS011;20026;50.058;18.428;2024-01-07T10:06:11;27.27;;;17.10;;
33690;SDS011;20026;50.058;18.428;2024-01-07T10:08:38;27.58;;;11.23;;
33690;SDS011;20026;50.058;18.428;2024-01-07T10:11:04;21.55;;;10.75;;
33690;SDS011;20026;50.058;18.428;2024-01-07T10:13:31;29.15;;;11.60;;
33690;SDS011;20026;50.058;18.428;2024-01-07T10:15:58;12.75;;;7.97;;
33690;SDS011;20026;50.058;18.428;2024-01-07T10:18:27;19.33;;;10.32;;
33690;SDS011;20026;50.058;18.428;2024-01-07T10:20:58;22.58;;;9.85;;
33690;SDS011;20026;50.058;18.428;2024-01-07T10:23:29;28.63;;;11.90;;
33690;SDS011;20026;50.058;18.428;2024-01-07T10:25:55;32.40;;;12.93;;
33690;SDS011;20026;50.058;18.428;2024-01-07T10:28:22;37.80;;;14.25;;
33690;SDS011;20026;50.058;18.428;2024-01-07T10:30:48;39.53;;;15.15;;
33690;SDS011;20026;50.058;18.428;2024-01-07T10:33:16;51.33;;;18.27;;
33690;SDS011;20026;50.058;18.428;2024-01-07T10:35:44;26.10;;;13.97;;
33690;SDS011;20026;50.058;18.428;2024-01-07T10:38:11;15.50;;;9.15;;
33690;SDS011;20026;50.058;18.428;2024-01-07T10:40:37;26.08;;;11.25;;
33690;SDS011;20026;50.058;18.428;2024-01-07T10:43:04;25.58;;;11.27;;
33690;SDS011;20026;50.058;18.428;2024-01-07T10:45:30;20.05;;;8.82;;
33690;SDS011;20026;50.058;18.428;2024-01-07T10:47:57;20.15;;;9.73;;
33690;SDS011;20026;50.058;18.428;2024-01-07T10:50:25;19.52;;;9.77;;
33690;SDS011;20026;50.058;18.428;2024-01-07T10:52:56;27.23;;;12.27;;
33690;SDS011;20026;50.058;18.428;2024-01-07T10:55:24;21.33;;;11.50;;
33690;SDS011;20026;50.058;18.428;2024-01-07T10:57:51;17.83;;;9.95;;
33690;SDS011;20026;50.058;18.428;2024-01-07T11:00:19;21.83;;;11.20;;
33690;SDS011;20026;50.058;18.428;2024-01-07T11:03:32;18.02;;;9.05;;
33690;SDS011;20026;50.058;18.428;2024-01-07T11:05:45;18.90;;;8.95;;
33690;SDS011;20026;50.058;18.428;2024-01-07T11:10:43;19.15;;;9.70;;
33690;SDS011;20026;50.058;18.428;2024-01-07T11:18:19;19.02;;;9.95;;
33690;SDS011;20026;50.058;18.428;2024-01-07T11:20:49;20.70;;;10.25;;
33690;SDS011;20026;50.058;18.428;2024-01-07T11:26:05;19.55;;;10.13;;
33690;SDS011;20026;50.058;18.428;2024-01-07T11:28:44;23.50;;;10.40;;
33690;SDS011;20026;50.058;18.428;2024-01-07T11:31:10;22.80;;;10.60;;
33690;SDS011;20026;50.058;18.428;2024-01-07T11:33:37;87.07;;;27.08;;
33690;SDS011;20026;50.058;18.428;2024-01-07T11:36:06;21.20;;;9.20;;
33690;SDS011;20026;50.058;18.428;2024-01-07T11:38:33;25.55;;;12.55;;
33690;SDS011;20026;50.058;18.428;2024-01-07T11:41:02;22.65;;;11.05;;
33690;SDS011;20026;50.058;18.428;2024-01-07T11:43:30;22.35;;;12.48;;
33690;SDS011;20026;50.058;18.428;2024-01-07T11:46:01;27.67;;;13.38;;
33690;SDS011;20026;50.058;18.428;2024-01-07T11:48:27;36.50;;;18.10;;
33690;SDS011;20026;50.058;18.428;2024-01-07T11:50:53;31.23;;;16.65;;
33690;SDS011;20026;50.058;18.428;2024-01-07T11:53:19;28.08;;;13.18;;
33690;SDS011;20026;50.058;18.428;2024-01-07T11:55:46;29.52;;;14.55;;
33690;SDS011;20026;50.058;18.428;2024-01-07T11:58:12;35.63;;;15.27;;
33690;SDS011;20026;50.058;18.428;2024-01-07T12:00:38;19.80;;;9.73;;
33690;SDS011;20026;50.058;18.428;2024-01-07T12:03:04;21.95;;;10.88;;
33690;SDS011;20026;50.058;18.428;2024-01-07T12:05:30;23.92;;;12.05;;
33690;SDS011;20026;50.058;18.428;2024-01-07T12:07:56;23.55;;;12.38;;
33690;SDS011;20026;50.058;18.428;2024-01-07T12:10:23;21.70;;;11.25;;
33690;SDS011;20026;50.058;18.428;2024-01-07T12:12:49;23.63;;;11.00;;
33690;SDS011;20026;50.058;18.428;2024-01-07T12:15:19;24.65;;;10.70;;
33690;SDS011;20026;50.058;18.428;2024-01-07T12:17:55;21.40;;;10.32;;
33690;SDS011;20026;50.058;18.428;2024-01-07T12:20:22;28.90;;;12.25;;
33690;SDS011;20026;50.058;18.428;2024-01-07T12:22:48;19.67;;;10.73;;
33690;SDS011;20026;50.058;18.428;2024-01-07T12:25:20;31.52;;;13.38;;
33690;SDS011;20026;50.058;18.428;2024-01-07T12:27:47;22.25;;;11.77;;
33690;SDS011;20026;50.058;18.428;2024-01-07T12:30:17;24.33;;;12.25;;
33690;SDS011;20026;50.058;18.428;2024-01-07T12:32:43;23.15;;;11.35;;
33690;SDS011;20026;50.058;18.428;2024-01-07T12:35:10;21.48;;;11.55;;
33690;SDS011;20026;50.058;18.428;2024-01-07T12:37:36;27.65;;;14.50;;
33690;SDS011;20026;50.058;18.428;2024-01-07T12:40:03;24.35;;;14.00;;
33690;SDS011;20026;50.058;18.428;2024-01-07T12:42:29;34.28;;;16.05;;
33690;SDS011;20026;50.058;18.428;2024-01-07T12:44:56;31.95;;;16.40;;
33690;SDS011;20026;50.058;18.428;2024-01-07T12:47:22;31.17;;;16.58;;
33690;SDS011;20026;50.058;18.428;2024-01-07T12:49:48;32.72;;;16.55;;
33690;SDS011;20026;50.058;18.428;2024-01-07T12:52:15;34.30;;;16.52;;
33690;SDS011;20026;50.058;18.428;2024-01-07T12:54:41;24.60;;;13.73;;
33690;SDS011;20026;50.058;18.428;2024-01-07T12:57:07;32.05;;;17.10;;
33690;SDS011;20026;50.058;18.428;2024-01-07T12:59:33;32.95;;;17.08;;
33690;SDS011;20026;50.058;18.428;2024-01-07T13:01:59;32.40;;;16.95;;
33690;SDS011;20026;50.058;18.428;2024-01-07T13:04:25;33.13;;;17.92;;
33690;SDS011;20026;50.058;18.428;2024-01-07T13:06:51;24.65;;;14.07;;
33690;SDS011;20026;50.058;18.428;2024-01-07T13:09:19;34.70;;;16.83;;
33690;SDS011;20026;50.058;18.428;2024-01-07T13:11:45;33.10;;;15.98;;
33690;SDS011;20026;50.058;18.428;2024-01-07T13:14:11;34.28;;;16.45;;
33690;SDS011;20026;50.058;18.428;2024-01-07T13:16:38;43.45;;;19.52;;
33690;SDS011;20026;50.058;18.428;2024-01-07T13:19:04;49.25;;;21.45;;
33690;SDS011;20026;50.058;18.428;2024-01-07T13:21:30;47.53;;;20.08;;
33690;SDS011;20026;50.058;18.428;2024-01-07T13:23:56;43.75;;;20.10;;
33690;SDS011;20026;50.058;18.428;2024-01-07T13:26:24;31.02;;;17.52;;
33690;SDS011;20026;50.058;18.428;2024-01-07T13:28:50;31.45;;;17.90;;
33690;SDS011;20026;50.058;18.428;2024-01-07T13:31:16;29.35;;;15.50;;
33690;SDS011;20026;50.058;18.428;2024-01-07T13:33:42;45.55;;;21.02;;
33690;SDS011;20026;50.058;18.428;2024-01-07T13:36:08;39.47;;;19.55;;
33690;SDS011;20026;50.058;18.428;2024-01-07T13:38:37;33.83;;;17.80;;
33690;SDS011;20026;50.058;18.428;2024-01-07T13:41:09;30.23;;;16.30;;
33690;SDS011;20026;50.058;18.428;2024-01-07T13:43:35;36.35;;;16.35;;
33690;SDS011;20026;50.058;18.428;2024-01-07T13:46:03;29.00;;;16.15;;
33690;SDS011;20026;50.058;18.428;2024-01-07T13:48:29;26.73;;;16.52;;
33690;SDS011;20026;50.058;18.428;2024-01-07T13:50:55;36.40;;;16.35;;
33690;SDS011;20026;50.058;18.428;2024-01-07T13:53:23;26.75;;;14.57;;
33690;SDS011;20026;50.058;18.428;2024-01-07T13:55:49;33.38;;;16.92;;
33690;SDS011;20026;50.058;18.428;2024-01-07T13:58:15;30.33;;;17.52;;
33690;SDS011;20026;50.058;18.428;2024-01-07T14:00:41;43.90;;;19.50;;
33690;SDS011;20026;50.058;18.428;2024-01-07T14:03:07;39.75;;;19.52;;
33690;SDS011;20026;50.058;18.428;2024-01-07T14:05:33;30.15;;;16.98;;
33690;SDS011;20026;50.058;18.428;2024-01-07T14:07:59;39.58;;;19.10;;
33690;SDS011;20026;50.058;18.428;2024-01-07T14:10:25;39.05;;;18.42;;
33690;SDS011;20026;50.058;18.428;2024-01-07T14:12:51;37.28;;;20.02;;
33690;SDS011;20026;50.058;18.428;2024-01-07T14:15:17;34.00;;;19.05;;
33690;SDS011;20026;50.058;18.428;2024-01-07T14:17:44;33.13;;;18.02;;
33690;SDS011;20026;50.058;18.428;2024-01-07T14:20:10;35.75;;;18.95;;
33690;SDS011;20026;50.058;18.428;2024-01-07T14:22:36;34.65;;;17.75;;